X  Schlie├čen METAR Luftfahrt Wetterdaten     EDGS Siegerland Airport
Temperatur
5°C Temperatur
4°C Taupunkt
93% Feuchtigkeit



Wind
10 KM/S
6 MPS
3 M/S
5 KTS



300°
WNW
Aktuelle Wetterlage

Meistens vereinzelte Wolken Meistens vereinzelte Wolken
Luftdruck 1017.95 (hPa) - 30.06 (inHg)
Sichtweite 6 (Meile) - 9.7 (Km)
Flughafen
Flughafen Code EDGS

Position : Siegerland Airport
Entfernung: 13 (Km)

Metar:
EDGS 130220Z AUTO 30005KT 9999 // SCT110/// BKN140/// 05/04 Q1018

Zeit: 13-06-2024 02:20 CEST